createdAt,value
2019-03-03T00:02:14.756Z,78.25
2019-03-03T00:04:42.486Z,76.73
2019-03-03T00:07:10.134Z,76.60
2019-03-03T00:09:37.789Z,76.21
2019-03-03T00:12:05.439Z,76.75
2019-03-03T00:14:33.091Z,77.27
2019-03-03T00:17:00.750Z,77.46
2019-03-03T00:19:28.395Z,76.97
2019-03-03T00:21:56.039Z,77.20
2019-03-03T00:24:23.686Z,77.28
2019-03-03T00:26:51.339Z,78.21
2019-03-03T00:29:18.989Z,77.52
2019-03-03T00:31:46.647Z,78.23
2019-03-03T00:34:14.302Z,78.36
2019-03-03T00:36:47.289Z,79.02
2019-03-03T00:39:24.514Z,78.23
2019-03-03T00:42:05.927Z,78.12
2019-03-03T00:44:45.985Z,76.38
2019-03-03T00:47:20.054Z,76.65
2019-03-03T00:49:56.947Z,77.20
2019-03-03T00:52:32.384Z,77.87
2019-03-03T00:55:10.695Z,78.13
2019-03-03T00:57:45.931Z,77.89
2019-03-03T01:00:18.831Z,78.60
2019-03-03T01:02:55.868Z,78.70
2019-03-03T01:05:32.162Z,78.77
2019-03-03T01:08:05.124Z,78.64
2019-03-03T01:10:46.757Z,78.62
2019-03-03T01:13:25.557Z,78.67
2019-03-03T01:15:58.480Z,79.28
2019-03-03T01:18:35.228Z,79.21
2019-03-03T01:21:09.347Z,78.77
2019-03-03T01:23:46.523Z,78.98
2019-03-03T01:26:14.168Z,78.65
2019-03-03T01:28:41.840Z,78.69
2019-03-03T01:31:09.487Z,78.38
2019-03-03T01:33:37.240Z,78.72
2019-03-03T01:36:04.894Z,78.52
2019-03-03T01:38:32.538Z,78.61
2019-03-03T01:41:00.191Z,78.96
2019-03-03T01:43:27.854Z,78.64
2019-03-03T01:45:55.518Z,78.59
2019-03-03T01:48:23.163Z,78.61
2019-03-03T01:50:50.888Z,78.93
2019-03-03T01:53:18.526Z,77.94
2019-03-03T01:55:46.188Z,78.49
2019-03-03T01:58:13.840Z,78.22
2019-03-03T02:00:41.486Z,78.34
2019-03-03T02:03:09.311Z,76.91
2019-03-03T02:08:03.576Z,77.32
2019-03-03T02:10:31.303Z,77.34
2019-03-03T02:12:58.943Z,77.84
2019-03-03T02:15:26.609Z,77.13
2019-03-03T02:17:54.319Z,77.83
2019-03-03T02:20:21.978Z,78.25
2019-03-03T02:22:49.648Z,77.38
2019-03-03T02:25:17.333Z,78.00
2019-03-03T02:27:44.970Z,77.90
2019-03-03T02:30:12.619Z,77.40
2019-03-03T02:32:40.275Z,77.19
2019-03-03T02:35:07.946Z,78.08
2019-03-03T02:37:35.591Z,78.36
2019-03-03T02:40:03.252Z,78.08
2019-03-03T02:42:30.894Z,78.43
2019-03-03T02:44:58.546Z,79.35
2019-03-03T02:47:26.181Z,79.55
2019-03-03T02:49:53.828Z,79.52
2019-03-03T02:52:21.464Z,79.89
2019-03-03T02:54:49.129Z,79.61
2019-03-03T02:57:16.786Z,79.38
2019-03-03T02:59:44.423Z,79.28
2019-03-03T03:02:26.867Z,79.41
2019-03-03T03:04:54.509Z,79.43
2019-03-03T03:07:28.924Z,78.15
2019-03-03T03:10:16.533Z,78.69
2019-03-03T03:12:52.526Z,78.82
2019-03-03T03:15:25.340Z,77.90
2019-03-03T03:17:58.256Z,78.70
2019-03-03T03:20:49.986Z,78.44
2019-03-03T03:23:24.121Z,78.18
2019-03-03T03:26:11.775Z,78.33
2019-03-03T03:28:52.421Z,78.81
2019-03-03T03:31:26.335Z,78.42
2019-03-03T03:34:00.358Z,77.10
2019-03-03T03:36:42.089Z,77.17
2019-03-03T03:39:18.702Z,77.17
2019-03-03T03:41:55.182Z,77.28
2019-03-03T03:44:41.861Z,76.13
2019-03-03T03:47:19.394Z,76.73
2019-03-03T03:49:53.215Z,77.02
2019-03-03T03:52:29.459Z,76.01
2019-03-03T03:55:12.754Z,76.15
2019-03-03T03:57:48.636Z,75.87
2019-03-03T04:00:36.261Z,75.99
2019-03-03T04:03:24.916Z,75.22
2019-03-03T04:06:02.315Z,75.75
2019-03-03T04:08:34.880Z,75.14
2019-03-03T04:11:07.641Z,75.16
2019-03-03T04:13:44.769Z,75.58
2019-03-03T04:16:18.673Z,75.65
2019-03-03T04:18:54.411Z,75.71
2019-03-03T04:21:33.755Z,75.56
2019-03-03T04:24:06.663Z,75.37
2019-03-03T04:26:44.754Z,75.41
2019-03-03T04:29:19.162Z,73.79
2019-03-03T04:31:52.098Z,74.79
2019-03-03T04:34:26.364Z,74.35
2019-03-03T04:37:01.424Z,73.87
2019-03-03T04:39:35.816Z,74.01
2019-03-03T04:42:14.549Z,73.23
2019-03-03T04:44:54.286Z,73.85
2019-03-03T04:47:27.596Z,71.87
2019-03-03T04:50:04.365Z,72.41
2019-03-03T04:52:44.632Z,71.50
2019-03-03T04:55:17.612Z,70.66
2019-03-03T04:57:56.340Z,70.54
2019-03-03T05:00:34.342Z,70.54
2019-03-03T05:03:10.807Z,69.45
2019-03-03T05:05:46.351Z,68.43
2019-03-03T05:08:25.479Z,69.04
2019-03-03T05:11:10.656Z,69.46
2019-03-03T05:13:44.150Z,69.92
2019-03-03T05:16:17.015Z,70.10
2019-03-03T05:18:56.061Z,69.55
2019-03-03T05:21:23.707Z,69.27
2019-03-03T05:23:51.360Z,68.48
2019-03-03T05:26:18.991Z,68.46
2019-03-03T05:28:46.632Z,67.40
2019-03-03T05:31:14.266Z,67.85
2019-03-03T05:33:41.914Z,68.43
2019-03-03T05:36:09.549Z,67.80
2019-03-03T05:38:37.187Z,67.39
2019-03-03T05:41:04.835Z,67.97
2019-03-03T05:43:32.470Z,67.86
2019-03-03T05:46:00.109Z,66.89
2019-03-03T05:48:27.747Z,66.60
2019-03-03T05:50:55.392Z,66.42
2019-03-03T05:53:23.031Z,65.69
2019-03-03T05:55:50.669Z,66.50
2019-03-03T05:58:18.304Z,65.54
2019-03-03T06:00:45.931Z,64.94
2019-03-03T06:03:13.657Z,65.49
2019-03-03T06:05:41.323Z,66.15
2019-03-03T06:08:08.954Z,64.79
2019-03-03T06:10:36.586Z,64.89
2019-03-03T06:13:04.229Z,64.91
2019-03-03T06:15:31.856Z,64.40
2019-03-03T06:17:59.492Z,64.88
2019-03-03T06:20:27.877Z,64.69
2019-03-03T06:22:55.672Z,64.18
2019-03-03T06:25:23.310Z,64.20
2019-03-03T06:27:50.948Z,63.98
2019-03-03T06:30:18.589Z,64.36
2019-03-03T06:32:46.242Z,64.93
2019-03-03T06:35:13.863Z,64.17
2019-03-03T06:37:41.507Z,63.46
2019-03-03T06:40:09.146Z,64.01
2019-03-03T06:42:36.798Z,63.98
2019-03-03T06:45:04.426Z,63.26
2019-03-03T06:47:32.068Z,62.96
2019-03-03T06:49:59.711Z,62.76
2019-03-03T06:52:27.354Z,63.32
2019-03-03T06:54:55.083Z,63.66
2019-03-03T06:57:22.718Z,63.79
2019-03-03T06:59:50.349Z,63.92
2019-03-03T07:02:17.983Z,63.89
2019-03-03T07:04:45.633Z,64.00
2019-03-03T07:07:13.279Z,63.74
2019-03-03T07:09:40.932Z,63.83
2019-03-03T07:12:08.584Z,63.92
2019-03-03T07:14:36.229Z,64.18
2019-03-03T07:17:03.869Z,64.46
2019-03-03T07:19:31.503Z,64.17
2019-03-03T07:21:59.162Z,63.58
2019-03-03T07:24:26.822Z,63.32
2019-03-03T07:26:54.488Z,62.67
2019-03-03T07:29:22.135Z,63.18
2019-03-03T07:31:49.762Z,63.36
2019-03-03T07:34:17.407Z,63.67
2019-03-03T07:36:45.065Z,62.98
2019-03-03T07:39:12.780Z,63.92
2019-03-03T07:41:40.499Z,63.60
2019-03-03T07:44:08.139Z,63.39
2019-03-03T07:46:35.807Z,64.02
2019-03-03T07:49:03.447Z,63.69
2019-03-03T07:51:31.087Z,63.43
2019-03-03T07:53:58.745Z,63.01
2019-03-03T07:56:26.392Z,63.21
2019-03-03T07:58:54.036Z,62.44
2019-03-03T08:01:21.761Z,62.92
2019-03-03T08:03:49.466Z,62.41
2019-03-03T08:06:17.113Z,62.38
2019-03-03T08:08:44.747Z,62.78
2019-03-03T08:11:12.422Z,62.74
2019-03-03T08:13:40.086Z,62.54
2019-03-03T08:16:07.738Z,61.98
2019-03-03T08:18:35.436Z,61.80
2019-03-03T08:21:03.083Z,61.81
2019-03-03T08:23:30.726Z,62.36
2019-03-03T08:25:58.379Z,61.71
2019-03-03T08:28:26.023Z,61.26
2019-03-03T08:30:53.685Z,61.03
2019-03-03T08:33:21.358Z,61.20
2019-03-03T08:35:49.011Z,62.21
2019-03-03T08:38:16.656Z,61.33
2019-03-03T08:40:44.296Z,60.85
2019-03-03T08:43:17.265Z,60.86
2019-03-03T08:45:53.096Z,60.91
2019-03-03T08:48:40.913Z,60.61
2019-03-03T08:51:18.869Z,61.08
2019-03-03T08:53:56.058Z,60.08
2019-03-03T08:56:43.555Z,60.15
2019-03-03T08:59:21.401Z,59.45
2019-03-03T09:01:56.727Z,59.75
2019-03-03T09:04:29.668Z,59.62
2019-03-03T09:07:04.015Z,59.28
2019-03-03T09:09:38.250Z,59.50
2019-03-03T09:12:11.164Z,59.45
2019-03-03T09:14:51.487Z,58.78
2019-03-03T09:17:27.904Z,58.15
2019-03-03T09:20:06.058Z,58.11
2019-03-03T09:22:45.407Z,58.52
2019-03-03T09:25:28.019Z,58.42
2019-03-03T09:28:04.591Z,59.26
2019-03-03T09:30:56.345Z,57.89
2019-03-03T09:33:39.440Z,57.76
2019-03-03T09:36:32.084Z,58.19
2019-03-03T09:39:09.683Z,58.58
2019-03-03T09:41:47.170Z,58.80
2019-03-03T09:44:23.239Z,59.03
2019-03-03T09:47:00.111Z,59.82
2019-03-03T09:49:33.080Z,59.41
2019-03-03T09:52:09.970Z,59.16
2019-03-03T09:54:54.023Z,59.69
2019-03-03T09:57:33.462Z,59.24
2019-03-03T10:00:09.114Z,59.14
2019-03-03T10:02:42.384Z,58.98
2019-03-03T10:05:15.338Z,59.04
2019-03-03T10:07:51.252Z,59.33
2019-03-03T10:10:24.863Z,59.06
2019-03-03T10:13:02.653Z,58.91
2019-03-03T10:15:36.051Z,58.92
2019-03-03T10:18:13.238Z,57.71
2019-03-03T10:20:59.926Z,58.13
2019-03-03T10:23:39.284Z,58.13
2019-03-03T10:26:19.553Z,57.78
2019-03-03T10:28:52.410Z,57.79
2019-03-03T10:31:41.102Z,57.42
2019-03-03T10:34:20.135Z,57.61
2019-03-03T10:36:54.928Z,57.55
2019-03-03T10:39:27.007Z,57.47
2019-03-03T10:42:07.888Z,56.31
2019-03-03T10:44:43.934Z,56.22
2019-03-03T10:47:18.062Z,56.28
2019-03-03T10:49:53.410Z,56.57
2019-03-03T10:52:30.091Z,56.85
2019-03-03T10:55:07.060Z,56.42
2019-03-03T10:57:45.570Z,56.46
2019-03-03T11:00:25.905Z,56.22
2019-03-03T11:03:14.390Z,55.28
2019-03-03T11:05:47.281Z,55.83
2019-03-03T11:08:33.071Z,54.87
2019-03-03T11:11:11.556Z,55.21
2019-03-03T11:13:47.759Z,54.86
2019-03-03T11:16:26.131Z,54.41
2019-03-03T11:19:02.002Z,54.89
2019-03-03T11:21:35.042Z,54.91
2019-03-03T11:24:17.876Z,54.70
2019-03-03T11:27:06.553Z,55.26
2019-03-03T11:29:40.361Z,56.36
2019-03-03T11:32:15.188Z,55.83
2019-03-03T11:34:56.779Z,56.08
2019-03-03T11:37:29.731Z,55.77
2019-03-03T11:40:08.229Z,55.92
2019-03-03T11:42:40.456Z,56.28
2019-03-03T11:45:15.077Z,55.82
2019-03-03T11:47:50.654Z,56.53
2019-03-03T11:50:26.282Z,55.99
2019-03-03T11:53:01.026Z,56.30
2019-03-03T11:55:37.371Z,55.59
2019-03-03T11:58:12.235Z,56.46
2019-03-03T12:01:01.830Z,56.30
2019-03-03T12:03:37.334Z,56.86
2019-03-03T12:06:14.159Z,56.75
2019-03-03T12:08:50.377Z,56.78
2019-03-03T12:11:23.210Z,57.26
2019-03-03T12:13:57.056Z,56.92
2019-03-03T12:16:30.755Z,57.12
2019-03-03T12:19:07.037Z,57.36
2019-03-03T12:21:42.978Z,56.55
2019-03-03T12:24:17.001Z,56.63
2019-03-03T12:26:59.903Z,55.81
2019-03-03T12:29:34.229Z,55.84
2019-03-03T12:32:10.530Z,55.19
2019-03-03T12:34:45.041Z,55.10
2019-03-03T12:39:46.250Z,54.10
2019-03-03T12:42:23.195Z,55.35
2019-03-03T12:44:56.052Z,54.26
2019-03-03T12:49:59.079Z,55.06
2019-03-03T12:52:35.010Z,54.32
2019-03-03T12:55:07.991Z,55.12
2019-03-03T13:02:43.293Z,55.57
2019-03-03T13:07:43.213Z,56.66
2019-03-03T13:10:23.980Z,55.61
2019-03-03T13:12:59.521Z,55.56
2019-03-03T13:15:38.262Z,56.13
2019-03-03T13:18:16.251Z,55.55
2019-03-03T13:20:53.340Z,56.56
2019-03-03T13:23:26.633Z,56.48
2019-03-03T13:25:59.604Z,55.96
2019-03-03T13:28:34.143Z,56.07
2019-03-03T13:31:08.979Z,57.29
2019-03-03T13:34:00.652Z,56.99
2019-03-03T13:36:37.269Z,56.89
2019-03-03T13:39:18.921Z,56.77
2019-03-03T13:41:57.796Z,56.60
2019-03-03T13:44:25.449Z,56.95
2019-03-03T13:46:53.081Z,57.04
2019-03-03T13:49:20.745Z,57.71
2019-03-03T13:51:48.386Z,57.19
2019-03-03T13:54:16.026Z,57.11
2019-03-03T13:56:43.666Z,56.59
2019-03-03T13:59:11.308Z,56.49
2019-03-03T14:01:38.965Z,56.82
2019-03-03T14:04:06.617Z,56.84
2019-03-03T14:06:34.267Z,56.73
2019-03-03T14:09:01.918Z,57.48
2019-03-03T14:11:29.567Z,57.21
2019-03-03T14:13:57.204Z,57.98
2019-03-03T14:16:24.846Z,57.82
2019-03-03T14:18:52.496Z,57.81
2019-03-03T14:21:20.142Z,58.89
2019-03-03T14:23:49.443Z,58.70
2019-03-03T14:26:17.331Z,59.57
2019-03-03T14:28:45.000Z,59.33
2019-03-03T14:31:12.652Z,60.00
2019-03-03T14:33:40.295Z,60.58
2019-03-03T14:36:07.983Z,60.78
2019-03-03T14:38:35.622Z,60.84
2019-03-03T14:41:03.269Z,60.82
2019-03-03T14:43:30.921Z,60.97
2019-03-03T14:45:58.580Z,59.50
2019-03-03T14:50:52.143Z,59.14
2019-03-03T14:53:19.807Z,60.29
2019-03-03T14:55:47.457Z,59.97
2019-03-03T14:58:15.102Z,60.44
2019-03-03T15:00:42.761Z,59.91
2019-03-03T15:03:10.394Z,60.02
2019-03-03T15:08:03.958Z,59.07
2019-03-03T15:10:31.602Z,60.18
2019-03-03T15:12:59.252Z,59.04
2019-03-03T15:15:26.895Z,59.23
2019-03-03T15:20:20.520Z,59.52
2019-03-03T15:22:48.164Z,58.46
2019-03-03T15:25:15.802Z,59.08
2019-03-03T15:27:43.453Z,58.59
2019-03-03T15:30:11.079Z,58.95
2019-03-03T15:32:38.723Z,58.81
2019-03-03T15:35:06.384Z,58.97
2019-03-03T15:37:34.037Z,59.72
2019-03-03T15:40:01.674Z,59.41
2019-03-03T15:42:29.314Z,59.98
2019-03-03T15:44:56.961Z,59.56
2019-03-03T15:49:50.527Z,59.42
2019-03-03T15:52:18.192Z,60.18
2019-03-03T15:54:45.820Z,60.39
2019-03-03T15:57:13.795Z,60.91
2019-03-03T15:59:41.478Z,59.72
2019-03-03T16:02:09.143Z,59.83
2019-03-03T16:04:36.790Z,60.25
2019-03-03T16:07:04.516Z,59.92
2019-03-03T16:09:32.163Z,60.42
2019-03-03T16:11:59.809Z,60.76
2019-03-03T16:14:27.455Z,60.84
2019-03-03T16:16:55.103Z,61.25
2019-03-03T16:19:22.747Z,61.24
2019-03-03T16:21:50.393Z,61.23
2019-03-03T16:24:18.044Z,61.77
2019-03-03T16:26:45.781Z,61.95
2019-03-03T16:29:13.402Z,62.04
2019-03-03T16:31:41.056Z,61.65
2019-03-03T16:34:08.695Z,62.12
2019-03-03T16:36:36.332Z,61.97
2019-03-03T16:39:04.454Z,62.86
2019-03-03T16:41:32.107Z,63.13
2019-03-03T16:43:59.764Z,62.32
2019-03-03T16:46:27.415Z,62.83
2019-03-03T16:48:55.076Z,62.37
2019-03-03T16:51:22.737Z,62.96
2019-03-03T16:53:50.369Z,62.59
2019-03-03T16:56:18.055Z,62.62
2019-03-03T16:58:45.694Z,62.49
2019-03-03T17:01:13.340Z,62.74
2019-03-03T17:03:40.987Z,63.00
2019-03-03T17:06:08.641Z,63.33
2019-03-03T17:08:36.277Z,62.83
2019-03-03T17:11:03.971Z,63.14
2019-03-03T17:13:31.601Z,62.72
2019-03-03T17:15:59.293Z,62.93
2019-03-03T17:18:26.934Z,63.36
2019-03-03T17:20:54.573Z,63.00
2019-03-03T17:23:22.228Z,62.77
2019-03-03T17:25:49.869Z,62.60
2019-03-03T17:28:17.509Z,63.29
2019-03-03T17:30:45.147Z,62.82
2019-03-03T17:33:12.808Z,62.96
2019-03-03T17:35:40.452Z,63.69
2019-03-03T17:38:08.103Z,63.46
2019-03-03T17:40:35.755Z,63.65
2019-03-03T17:43:03.406Z,63.39
2019-03-03T17:45:31.051Z,63.69
2019-03-03T17:47:58.715Z,63.79
2019-03-03T17:50:26.346Z,64.43
2019-03-03T17:52:54.000Z,64.20
2019-03-03T17:55:21.661Z,64.43
2019-03-03T17:57:49.313Z,64.27
2019-03-03T18:00:17.141Z,64.70
2019-03-03T18:02:44.783Z,64.29
2019-03-03T18:05:12.433Z,64.65
2019-03-03T18:07:40.118Z,65.03
2019-03-03T18:10:07.913Z,65.09
2019-03-03T18:12:35.543Z,64.43
2019-03-03T18:15:03.254Z,65.03
2019-03-03T18:17:30.899Z,65.05
2019-03-03T18:19:58.538Z,65.27
2019-03-03T18:22:26.182Z,65.06
2019-03-03T18:24:53.847Z,64.55
2019-03-03T18:27:21.512Z,65.06
2019-03-03T18:29:49.156Z,65.57
2019-03-03T18:32:16.806Z,65.83
2019-03-03T18:34:44.438Z,66.08
2019-03-03T18:37:13.226Z,66.11
2019-03-03T18:39:41.038Z,66.73
2019-03-03T18:42:08.676Z,67.34
2019-03-03T18:44:36.305Z,66.39
2019-03-03T18:47:03.947Z,66.93
2019-03-03T18:49:31.594Z,67.36
2019-03-03T18:51:59.246Z,66.51
2019-03-03T18:54:26.898Z,66.06
2019-03-03T18:56:54.538Z,66.35
2019-03-03T18:59:22.174Z,65.89
2019-03-03T19:01:49.821Z,66.23
2019-03-03T19:04:17.463Z,66.38
2019-03-03T19:06:45.110Z,66.53
2019-03-03T19:09:17.628Z,66.29
2019-03-03T19:11:45.312Z,66.62
2019-03-03T19:14:12.943Z,66.11
2019-03-03T19:16:40.611Z,65.74
2019-03-03T19:19:08.251Z,66.01
2019-03-03T19:21:35.899Z,65.42
2019-03-03T19:24:03.575Z,65.08
2019-03-03T19:26:31.215Z,64.64
2019-03-03T19:28:58.860Z,64.96
2019-03-03T19:31:26.494Z,65.46
2019-03-03T19:33:54.139Z,65.55
2019-03-03T19:36:21.780Z,65.05
2019-03-03T19:38:49.428Z,65.29
2019-03-03T19:41:17.073Z,65.50
2019-03-03T19:43:44.718Z,64.89
2019-03-03T19:46:12.350Z,65.44
2019-03-03T19:48:40.013Z,64.80
2019-03-03T19:51:07.743Z,64.73
2019-03-03T19:53:35.479Z,64.60
2019-03-03T19:56:03.119Z,64.08
2019-03-03T19:58:30.777Z,64.36
2019-03-03T20:00:58.502Z,65.33
2019-03-03T20:03:26.144Z,65.21
2019-03-03T20:05:53.784Z,64.88
2019-03-03T20:08:21.428Z,64.33
2019-03-03T20:10:49.088Z,65.13
2019-03-03T20:13:16.727Z,65.21
2019-03-03T20:15:44.379Z,65.17
2019-03-03T20:18:12.040Z,65.23
2019-03-03T20:20:39.674Z,65.70
2019-03-03T20:23:07.323Z,64.98
2019-03-03T20:25:34.968Z,64.45
2019-03-03T20:28:02.619Z,64.59
2019-03-03T20:30:30.255Z,64.96
2019-03-03T20:32:57.907Z,64.90
2019-03-03T20:35:25.539Z,65.04
2019-03-03T20:37:53.193Z,64.08
2019-03-03T20:40:20.882Z,64.63
2019-03-03T20:42:48.539Z,65.03
2019-03-03T20:45:16.174Z,65.31
2019-03-03T20:47:43.822Z,65.68
2019-03-03T20:50:11.462Z,65.86
2019-03-03T20:52:39.110Z,66.18
2019-03-03T20:55:06.754Z,66.40
2019-03-03T20:57:36.390Z,65.35
2019-03-03T21:00:03.751Z,65.12
2019-03-03T21:02:31.408Z,65.84
2019-03-03T21:04:59.210Z,64.98
2019-03-03T21:07:27.018Z,66.09
2019-03-03T21:09:54.749Z,66.06
2019-03-03T21:12:22.398Z,65.64
2019-03-03T21:14:50.054Z,65.52
2019-03-03T21:17:17.695Z,66.21
2019-03-03T21:19:45.429Z,66.07
2019-03-03T21:22:13.084Z,66.48
2019-03-03T21:24:40.875Z,66.03
2019-03-03T21:27:08.520Z,64.26
2019-03-03T21:29:36.154Z,64.11
2019-03-03T21:32:03.804Z,64.92
2019-03-03T21:34:31.453Z,65.33
2019-03-03T21:36:59.187Z,65.64
2019-03-03T21:39:26.843Z,63.63
2019-03-03T21:41:54.490Z,64.24
2019-03-03T21:44:22.156Z,64.00
2019-03-03T22:01:26.034Z,63.60
2019-03-03T22:03:53.672Z,63.38
2019-03-03T22:06:21.315Z,63.97
2019-03-03T22:08:48.951Z,63.86
2019-03-03T22:11:16.630Z,64.42
2019-03-03T22:13:44.318Z,64.60
2019-03-03T22:16:12.053Z,64.41
2019-03-03T22:18:39.690Z,64.29
2019-03-03T22:21:07.322Z,64.14
2019-03-03T22:23:34.968Z,64.36
2019-03-03T22:26:02.611Z,64.11
2019-03-03T22:28:30.265Z,63.69
2019-03-03T22:30:57.922Z,63.68
2019-03-03T22:33:25.571Z,63.78
2019-03-03T22:35:53.215Z,64.17
2019-03-03T22:38:21.304Z,64.62
2019-03-03T22:40:49.094Z,63.82
2019-03-03T22:43:16.810Z,64.56
2019-03-03T22:45:44.517Z,63.90
2019-03-03T22:48:12.177Z,63.00
2019-03-03T22:50:39.849Z,63.35
2019-03-03T22:53:07.492Z,63.70
2019-03-03T22:55:35.143Z,61.90
2019-03-03T22:58:02.776Z,62.22
2019-03-03T23:00:43.175Z,63.17
2019-03-03T23:03:10.814Z,63.62
2019-03-03T23:05:38.459Z,63.36
2019-03-03T23:08:06.102Z,63.13
2019-03-03T23:10:34.869Z,63.96
2019-03-03T23:13:02.652Z,64.13
2019-03-03T23:15:30.304Z,64.63
2019-03-03T23:17:57.963Z,64.57
2019-03-03T23:20:25.605Z,63.89
2019-03-03T23:22:53.239Z,63.83
2019-03-03T23:25:20.891Z,63.51
2019-03-03T23:27:48.534Z,63.14
2019-03-03T23:30:16.183Z,62.31
2019-03-03T23:32:43.822Z,63.41
2019-03-03T23:35:11.481Z,63.69
2019-03-03T23:37:39.133Z,63.86
2019-03-03T23:40:06.781Z,63.22
2019-03-03T23:42:34.428Z,62.58
2019-03-03T23:45:02.075Z,62.67
2019-03-03T23:47:29.711Z,62.63
2019-03-03T23:49:57.367Z,62.96
2019-03-03T23:54:51.612Z,63.55
2019-03-03T23:57:19.260Z,63.77
